METAR AND TAF INFORMATION
METAR FOR ZWWW
ADDS - METARS form results

(0847 UTC 24 June 2018)
Data provider http://aviationweather.gov/adds/metars/
 
METAR text: ZWWW 240830Z 01004MPS 330V060 CAVOK 35/03 Q1002 NOSIG
Conditions at: ZWWW (URUM-QI/DIWOPU , CN) observed 0830 UTC 24 June 2018
Temperature: 35.0°C (95°F)
Dewpoint: 3.0°C (37°F) [RH = 13%]
Pressure (altimeter): 29.59 inches Hg (1002.0 mb)
Winds: from the N (10 degrees) at 9 MPH (8 knots; 4.2 m/s)
Visibility: 6 or more miles (10+ km)
Ceiling: ceiling and visibility are OK
Clouds: unknown
Weather: no significant weather observed at this time

METAR text: ZWWW 240800Z 01003MPS 330V080 CAVOK 34/03 Q1002 NOSIG
Conditions at: ZWWW (URUM-QI/DIWOPU , CN) observed 0800 UTC 24 June 2018
Temperature: 34.0°C (93°F)
Dewpoint: 3.0°C (37°F) [RH = 14%]
Pressure (altimeter): 29.59 inches Hg (1002.0 mb)
Winds: from the N (10 degrees) at 7 MPH (6 knots; 3.1 m/s)
Visibility: 6 or more miles (10+ km)
Ceiling: ceiling and visibility are OK
Clouds: unknown
Weather: no significant weather observed at this time

Forecast for: ZWWW (URUM-QI/DIWOPU , CN)
Text: TAF ZWWW 240308Z 2406/2506 36004MPS CAVOK TX33/2409Z TN23/2423Z
Forecast period: 0600 to 1300 UTC 24 June 2018
Forecast type: FROM: standard forecast or significant change
Winds: from the N (360 degrees) at 9 MPH (8 knots; 4.2 m/s)
Visibility: 6 or more miles (10+ km)
Clouds: not forecast
Weather: no significant weather forecast for this period
Text: BECMG 2413/2414 18004MPS
Forecast period: 1300 UTC 24 June 2018 to 0200 UTC 25 June 2018
Forecast type: BECOMING: Conditions expected to become as follows by 1400 UTC 24 June 2018
Winds: from the S (180 degrees) at 9 MPH (8 knots; 4.2 m/s)
Visibility: 6 or more miles (10+ km)
Weather: no significant weather forecast for this period
Text: BECMG 2502/2503 36004MPS
Forecast period: 0200 to 0600 UTC 25 June 2018
Forecast type: BECOMING: Conditions expected to become as follows by 0300 UTC 25 June 2018
Winds: from the N (360 degrees) at 9 MPH (8 knots; 4.2 m/s)
Visibility: 6 or more miles (10+ km)
Weather: no significant weather forecast for this period

 AIRPORT MAP

 RUNWAY INFORMATION
Runway 07 Runway length 11811 ft Runway width 148 ft
Runway elevation 2123 ft Runway displaced threshold 0 ft Runway heading 74
Runway 25 Runway length 11811 ft Runway width 148 ft
Runway elevation 2126 ft Runway displaced threshold 0 ft Runway heading 254

 AIRPORT FREQUENCIES
Type ATIS Name ATIS Frequency 126.7 MHZ
Type GND Name GND Frequency 121.65 MHZ
Type TWR Name TWR Frequency 118.1 MHZ

 AIRPORT NEAR NAVIGATION AIDS
Type NDB Name Fukang Frequency 369 KHZ
Type VOR-DME Name Fukang Frequency 116300 KHZ
Type VOR-DME Name Urumqi Frequency 115700 KHZ